11°C Temp
8°C Dewpoint
82% Humidity
Temperature
13 KM/H
8 MPH
7 KTS
330°
North North
West

Wind Speed
Partly Cloudy
Conditions
Pressure 1015.92 (hPa) - 30 (in)
Visibility 6.2 (mi) - 10.0 (km)

Current Conditions
EHAM
Location 30(km)
Metar :EHAM 241955Z 33007KT 9999 FEW016 11/08 Q1016 NOSIG
Fri 24th May 21:55 pm

Airport
  Metar Aviation API Data Provided by https://www.checkwx.com/ PHP scripts by weather34.com ©2019